Аэропорт: Павлодар. Павлодар

ICAO: UASP

METAR:
2021-01-24 18:00:00
UASP 241800Z 18002MPS CAVOK M37/M42 Q1045 R21/450550 NOSIG RMK QFE772/1030
METAR:
2021-01-24 17:00:00
TAF UASP 241700Z 2418/2503 16003MPS 3100 FU BKN011 TEMPO 2418/2424 1000 BR BKN005